sensor_id;sensor_type;location;lat;lon;timestamp;P1;durP1;ratioP1;P2;durP2;ratioP2
69625;SDS011;56847;51.984;5.088;2023-02-28T00:01:22;6.10;;;3.40;;
69625;SDS011;56847;51.984;5.088;2023-02-28T00:03:49;8.77;;;3.57;;
69625;SDS011;56847;51.984;5.088;2023-02-28T00:06:16;5.90;;;4.13;;
69625;SDS011;56847;51.984;5.088;2023-02-28T00:08:43;6.05;;;3.67;;
69625;SDS011;56847;51.984;5.088;2023-02-28T00:11:11;7.32;;;3.60;;
69625;SDS011;56847;51.984;5.088;2023-02-28T00:13:41;6.85;;;3.78;;
69625;SDS011;56847;51.984;5.088;2023-02-28T00:16:11;14.40;;;3.67;;
69625;SDS011;56847;51.984;5.088;2023-02-28T00:18:40;6.53;;;3.47;;
69625;SDS011;56847;51.984;5.088;2023-02-28T00:21:07;5.55;;;4.15;;
69625;SDS011;56847;51.984;5.088;2023-02-28T00:23:35;9.13;;;4.28;;
69625;SDS011;56847;51.984;5.088;2023-02-28T00:26:02;17.73;;;4.65;;
69625;SDS011;56847;51.984;5.088;2023-02-28T00:28:29;6.30;;;3.73;;
69625;SDS011;56847;51.984;5.088;2023-02-28T00:30:58;6.40;;;3.90;;
69625;SDS011;56847;51.984;5.088;2023-02-28T00:33:27;9.85;;;3.90;;
69625;SDS011;56847;51.984;5.088;2023-02-28T00:36:02;8.90;;;3.75;;
69625;SDS011;56847;51.984;5.088;2023-02-28T00:38:35;6.72;;;3.72;;
69625;SDS011;56847;51.984;5.088;2023-02-28T00:41:03;8.33;;;3.53;;
69625;SDS011;56847;51.984;5.088;2023-02-28T00:43:32;6.82;;;3.42;;
69625;SDS011;56847;51.984;5.088;2023-02-28T00:46:00;6.97;;;3.97;;
69625;SDS011;56847;51.984;5.088;2023-02-28T00:48:29;8.95;;;3.70;;
69625;SDS011;56847;51.984;5.088;2023-02-28T00:50:56;12.70;;;4.22;;
69625;SDS011;56847;51.984;5.088;2023-02-28T00:53:25;6.07;;;3.70;;
69625;SDS011;56847;51.984;5.088;2023-02-28T00:55:52;8.85;;;3.70;;
69625;SDS011;56847;51.984;5.088;2023-02-28T00:58:19;7.55;;;3.70;;
69625;SDS011;56847;51.984;5.088;2023-02-28T01:00:46;7.65;;;3.75;;
69625;SDS011;56847;51.984;5.088;2023-02-28T01:03:17;7.55;;;3.97;;
69625;SDS011;56847;51.984;5.088;2023-02-28T01:05:46;8.87;;;4.00;;
69625;SDS011;56847;51.984;5.088;2023-02-28T01:08:15;4.78;;;3.58;;
69625;SDS011;56847;51.984;5.088;2023-02-28T01:10:42;7.30;;;4.07;;
69625;SDS011;56847;51.984;5.088;2023-02-28T01:13:10;7.78;;;4.35;;
69625;SDS011;56847;51.984;5.088;2023-02-28T01:15:38;6.00;;;4.55;;
69625;SDS011;56847;51.984;5.088;2023-02-28T01:18:10;10.03;;;4.50;;
69625;SDS011;56847;51.984;5.088;2023-02-28T01:20:37;6.90;;;3.88;;
69625;SDS011;56847;51.984;5.088;2023-02-28T01:23:04;7.13;;;4.43;;
69625;SDS011;56847;51.984;5.088;2023-02-28T01:25:36;7.20;;;4.10;;
69625;SDS011;56847;51.984;5.088;2023-02-28T01:28:03;8.60;;;4.30;;
69625;SDS011;56847;51.984;5.088;2023-02-28T01:30:32;7.87;;;3.90;;
69625;SDS011;56847;51.984;5.088;2023-02-28T01:32:59;8.10;;;4.22;;
69625;SDS011;56847;51.984;5.088;2023-02-28T01:35:31;6.88;;;4.20;;
69625;SDS011;56847;51.984;5.088;2023-02-28T01:37:59;10.45;;;4.38;;
69625;SDS011;56847;51.984;5.088;2023-02-28T01:40:46;9.68;;;4.43;;
69625;SDS011;56847;51.984;5.088;2023-02-28T01:43:21;8.73;;;5.13;;
69625;SDS011;56847;51.984;5.088;2023-02-28T01:45:51;7.95;;;4.18;;
69625;SDS011;56847;51.984;5.088;2023-02-28T01:48:19;8.50;;;4.97;;
69625;SDS011;56847;51.984;5.088;2023-02-28T01:50:52;10.38;;;4.38;;
69625;SDS011;56847;51.984;5.088;2023-02-28T01:53:21;7.53;;;5.00;;
69625;SDS011;56847;51.984;5.088;2023-02-28T01:55:55;8.67;;;4.50;;
69625;SDS011;56847;51.984;5.088;2023-02-28T01:58:23;10.25;;;3.97;;
69625;SDS011;56847;51.984;5.088;2023-02-28T02:00:50;8.25;;;4.97;;
69625;SDS011;56847;51.984;5.088;2023-02-28T02:03:18;12.88;;;4.97;;
69625;SDS011;56847;51.984;5.088;2023-02-28T02:05:46;8.90;;;4.32;;
69625;SDS011;56847;51.984;5.088;2023-02-28T02:08:15;7.90;;;3.90;;
69625;SDS011;56847;51.984;5.088;2023-02-28T02:10:58;8.95;;;4.95;;
69625;SDS011;56847;51.984;5.088;2023-02-28T02:13:30;9.90;;;4.65;;
69625;SDS011;56847;51.984;5.088;2023-02-28T02:27:39;8.00;;;4.63;;
69625;SDS011;56847;51.984;5.088;2023-02-28T02:36:38;7.27;;;4.30;;
69625;SDS011;56847;51.984;5.088;2023-02-28T02:41:58;6.70;;;4.97;;
69625;SDS011;56847;51.984;5.088;2023-02-28T02:44:38;5.72;;;4.70;;
69625;SDS011;56847;51.984;5.088;2023-02-28T02:47:22;9.57;;;4.75;;
69625;SDS011;56847;51.984;5.088;2023-02-28T02:49:53;7.33;;;4.60;;
69625;SDS011;56847;51.984;5.088;2023-02-28T02:52:25;8.77;;;4.85;;
69625;SDS011;56847;51.984;5.088;2023-02-28T02:54:58;9.40;;;4.63;;
69625;SDS011;56847;51.984;5.088;2023-02-28T02:57:28;8.25;;;5.07;;
69625;SDS011;56847;51.984;5.088;2023-02-28T03:00:00;5.10;;;4.22;;
69625;SDS011;56847;51.984;5.088;2023-02-28T03:02:30;5.43;;;4.47;;
69625;SDS011;56847;51.984;5.088;2023-02-28T03:05:01;9.95;;;5.20;;
69625;SDS011;56847;51.984;5.088;2023-02-28T03:07:43;7.55;;;5.30;;
69625;SDS011;56847;51.984;5.088;2023-02-28T03:10:34;14.55;;;4.80;;
69625;SDS011;56847;51.984;5.088;2023-02-28T03:13:17;11.70;;;5.00;;
69625;SDS011;56847;51.984;5.088;2023-02-28T03:16:13;12.83;;;5.33;;
69625;SDS011;56847;51.984;5.088;2023-02-28T03:24:27;11.88;;;5.10;;
69625;SDS011;56847;51.984;5.088;2023-02-28T03:26:58;7.40;;;4.93;;
69625;SDS011;56847;51.984;5.088;2023-02-28T03:29:34;10.87;;;5.03;;
69625;SDS011;56847;51.984;5.088;2023-02-28T03:32:07;9.45;;;5.05;;
69625;SDS011;56847;51.984;5.088;2023-02-28T03:34:56;18.20;;;6.05;;
69625;SDS011;56847;51.984;5.088;2023-02-28T03:37:34;9.65;;;5.60;;
69625;SDS011;56847;51.984;5.088;2023-02-28T03:40:05;8.60;;;4.78;;
69625;SDS011;56847;51.984;5.088;2023-02-28T03:42:36;9.60;;;4.97;;
69625;SDS011;56847;51.984;5.088;2023-02-28T03:45:05;6.25;;;4.70;;
69625;SDS011;56847;51.984;5.088;2023-02-28T03:47:39;9.88;;;5.70;;
69625;SDS011;56847;51.984;5.088;2023-02-28T03:50:14;7.00;;;5.32;;
69625;SDS011;56847;51.984;5.088;2023-02-28T03:53:11;11.20;;;5.45;;
69625;SDS011;56847;51.984;5.088;2023-02-28T03:55:46;11.67;;;5.30;;
69625;SDS011;56847;51.984;5.088;2023-02-28T04:00:58;10.15;;;5.03;;
69625;SDS011;56847;51.984;5.088;2023-02-28T04:03:34;11.50;;;5.63;;
69625;SDS011;56847;51.984;5.088;2023-02-28T04:06:03;11.07;;;5.30;;
69625;SDS011;56847;51.984;5.088;2023-02-28T04:08:32;11.10;;;4.83;;
69625;SDS011;56847;51.984;5.088;2023-02-28T04:11:15;9.77;;;4.97;;
69625;SDS011;56847;51.984;5.088;2023-02-28T04:13:48;9.35;;;5.55;;
69625;SDS011;56847;51.984;5.088;2023-02-28T04:16:15;12.02;;;5.28;;
69625;SDS011;56847;51.984;5.088;2023-02-28T04:19:00;11.90;;;6.20;;
69625;SDS011;56847;51.984;5.088;2023-02-28T04:21:32;12.00;;;5.50;;
69625;SDS011;56847;51.984;5.088;2023-02-28T04:24:05;13.70;;;5.05;;
69625;SDS011;56847;51.984;5.088;2023-02-28T04:26:37;10.80;;;5.60;;
69625;SDS011;56847;51.984;5.088;2023-02-28T04:29:06;9.75;;;5.78;;
69625;SDS011;56847;51.984;5.088;2023-02-28T04:31:33;11.43;;;5.85;;
69625;SDS011;56847;51.984;5.088;2023-02-28T04:34:00;7.40;;;5.70;;
69625;SDS011;56847;51.984;5.088;2023-02-28T04:36:28;7.90;;;4.95;;
69625;SDS011;56847;51.984;5.088;2023-02-28T04:38:54;13.00;;;5.90;;
69625;SDS011;56847;51.984;5.088;2023-02-28T04:41:22;9.80;;;5.50;;
69625;SDS011;56847;51.984;5.088;2023-02-28T04:43:53;7.03;;;5.10;;
69625;SDS011;56847;51.984;5.088;2023-02-28T04:46:20;5.97;;;4.20;;
69625;SDS011;56847;51.984;5.088;2023-02-28T04:48:47;8.50;;;4.78;;
69625;SDS011;56847;51.984;5.088;2023-02-28T04:51:15;7.32;;;4.80;;
69625;SDS011;56847;51.984;5.088;2023-02-28T04:53:43;7.35;;;5.28;;
69625;SDS011;56847;51.984;5.088;2023-02-28T04:56:14;7.28;;;4.47;;
69625;SDS011;56847;51.984;5.088;2023-02-28T04:58:42;7.47;;;4.10;;
69625;SDS011;56847;51.984;5.088;2023-02-28T05:01:17;6.30;;;4.00;;
69625;SDS011;56847;51.984;5.088;2023-02-28T05:03:44;5.30;;;4.22;;
69625;SDS011;56847;51.984;5.088;2023-02-28T05:06:14;6.05;;;4.43;;
69625;SDS011;56847;51.984;5.088;2023-02-28T05:08:41;10.93;;;4.93;;
69625;SDS011;56847;51.984;5.088;2023-02-28T05:11:16;5.50;;;4.37;;
69625;SDS011;56847;51.984;5.088;2023-02-28T05:13:48;7.28;;;4.40;;
69625;SDS011;56847;51.984;5.088;2023-02-28T05:16:16;6.68;;;4.30;;
69625;SDS011;56847;51.984;5.088;2023-02-28T05:18:43;8.25;;;5.22;;
69625;SDS011;56847;51.984;5.088;2023-02-28T05:21:27;12.57;;;5.43;;
69625;SDS011;56847;51.984;5.088;2023-02-28T05:24:01;8.57;;;4.37;;
69625;SDS011;56847;51.984;5.088;2023-02-28T05:26:39;7.15;;;4.47;;
69625;SDS011;56847;51.984;5.088;2023-02-28T05:29:07;4.97;;;4.45;;
69625;SDS011;56847;51.984;5.088;2023-02-28T05:31:35;11.45;;;4.57;;
69625;SDS011;56847;51.984;5.088;2023-02-28T05:34:02;5.30;;;4.40;;
69625;SDS011;56847;51.984;5.088;2023-02-28T05:36:32;5.83;;;4.20;;
69625;SDS011;56847;51.984;5.088;2023-02-28T05:38:59;6.97;;;4.28;;
69625;SDS011;56847;51.984;5.088;2023-02-28T05:41:29;5.63;;;4.63;;
69625;SDS011;56847;51.984;5.088;2023-02-28T05:43:57;7.38;;;5.13;;
69625;SDS011;56847;51.984;5.088;2023-02-28T05:46:26;7.43;;;4.90;;
69625;SDS011;56847;51.984;5.088;2023-02-28T05:48:52;8.30;;;4.13;;
69625;SDS011;56847;51.984;5.088;2023-02-28T05:51:19;5.35;;;4.85;;
69625;SDS011;56847;51.984;5.088;2023-02-28T05:53:46;9.35;;;5.28;;
69625;SDS011;56847;51.984;5.088;2023-02-28T05:56:17;5.65;;;4.20;;
69625;SDS011;56847;51.984;5.088;2023-02-28T05:58:44;6.07;;;4.28;;
69625;SDS011;56847;51.984;5.088;2023-02-28T06:03:59;5.40;;;4.30;;
69625;SDS011;56847;51.984;5.088;2023-02-28T06:06:27;6.28;;;4.28;;
69625;SDS011;56847;51.984;5.088;2023-02-28T06:08:54;8.50;;;4.18;;
69625;SDS011;56847;51.984;5.088;2023-02-28T06:11:21;5.68;;;3.95;;
69625;SDS011;56847;51.984;5.088;2023-02-28T06:13:54;5.33;;;4.07;;
69625;SDS011;56847;51.984;5.088;2023-02-28T06:16:23;6.75;;;4.10;;
69625;SDS011;56847;51.984;5.088;2023-02-28T06:18:50;6.88;;;4.68;;
69625;SDS011;56847;51.984;5.088;2023-02-28T06:21:18;9.68;;;4.60;;
69625;SDS011;56847;51.984;5.088;2023-02-28T06:23:45;6.18;;;4.75;;
69625;SDS011;56847;51.984;5.088;2023-02-28T06:26:12;7.80;;;4.90;;
69625;SDS011;56847;51.984;5.088;2023-02-28T06:28:39;6.45;;;4.60;;
69625;SDS011;56847;51.984;5.088;2023-02-28T06:31:07;5.88;;;4.10;;
69625;SDS011;56847;51.984;5.088;2023-02-28T06:33:38;15.02;;;4.85;;
69625;SDS011;56847;51.984;5.088;2023-02-28T06:36:06;12.43;;;4.63;;
69625;SDS011;56847;51.984;5.088;2023-02-28T06:38:33;5.77;;;4.23;;
69625;SDS011;56847;51.984;5.088;2023-02-28T06:41:01;10.95;;;4.63;;
69625;SDS011;56847;51.984;5.088;2023-02-28T06:43:30;8.90;;;4.32;;
69625;SDS011;56847;51.984;5.088;2023-02-28T06:46:00;5.88;;;4.22;;
69625;SDS011;56847;51.984;5.088;2023-02-28T06:48:28;11.02;;;4.75;;
69625;SDS011;56847;51.984;5.088;2023-02-28T06:51:05;9.47;;;4.40;;
69625;SDS011;56847;51.984;5.088;2023-02-28T06:53:37;6.13;;;4.78;;
69625;SDS011;56847;51.984;5.088;2023-02-28T06:56:05;6.25;;;5.10;;
69625;SDS011;56847;51.984;5.088;2023-02-28T06:58:33;7.05;;;4.45;;
69625;SDS011;56847;51.984;5.088;2023-02-28T07:01:01;7.68;;;4.63;;
69625;SDS011;56847;51.984;5.088;2023-02-28T07:03:28;6.33;;;4.77;;
69625;SDS011;56847;51.984;5.088;2023-02-28T07:05:58;8.32;;;5.13;;
69625;SDS011;56847;51.984;5.088;2023-02-28T07:08:25;10.68;;;5.53;;
69625;SDS011;56847;51.984;5.088;2023-02-28T07:10:54;6.15;;;4.65;;
69625;SDS011;56847;51.984;5.088;2023-02-28T07:13:23;7.85;;;5.13;;
69625;SDS011;56847;51.984;5.088;2023-02-28T07:15:58;8.70;;;3.93;;
69625;SDS011;56847;51.984;5.088;2023-02-28T07:18:26;9.25;;;4.85;;
69625;SDS011;56847;51.984;5.088;2023-02-28T07:20:54;9.65;;;5.38;;
69625;SDS011;56847;51.984;5.088;2023-02-28T07:23:21;10.15;;;4.93;;
69625;SDS011;56847;51.984;5.088;2023-02-28T07:25:49;8.50;;;4.47;;
69625;SDS011;56847;51.984;5.088;2023-02-28T07:28:21;8.03;;;4.60;;
69625;SDS011;56847;51.984;5.088;2023-02-28T07:30:48;8.80;;;4.85;;
69625;SDS011;56847;51.984;5.088;2023-02-28T07:33:15;9.40;;;4.78;;
69625;SDS011;56847;51.984;5.088;2023-02-28T07:35:42;12.07;;;4.72;;
69625;SDS011;56847;51.984;5.088;2023-02-28T07:38:10;11.82;;;5.68;;
69625;SDS011;56847;51.984;5.088;2023-02-28T07:40:37;7.53;;;5.33;;
69625;SDS011;56847;51.984;5.088;2023-02-28T07:43:06;7.07;;;5.22;;
69625;SDS011;56847;51.984;5.088;2023-02-28T07:45:33;7.53;;;5.70;;
69625;SDS011;56847;51.984;5.088;2023-02-28T07:48:01;7.35;;;4.88;;
69625;SDS011;56847;51.984;5.088;2023-02-28T07:50:28;6.88;;;4.50;;
69625;SDS011;56847;51.984;5.088;2023-02-28T07:52:57;5.97;;;4.27;;
69625;SDS011;56847;51.984;5.088;2023-02-28T07:55:24;5.63;;;4.35;;
69625;SDS011;56847;51.984;5.088;2023-02-28T07:57:51;5.28;;;4.10;;
69625;SDS011;56847;51.984;5.088;2023-02-28T08:00:18;5.95;;;4.10;;
69625;SDS011;56847;51.984;5.088;2023-02-28T08:02:45;11.15;;;5.03;;
69625;SDS011;56847;51.984;5.088;2023-02-28T08:05:12;8.03;;;5.10;;
69625;SDS011;56847;51.984;5.088;2023-02-28T08:07:39;11.38;;;5.85;;
69625;SDS011;56847;51.984;5.088;2023-02-28T08:10:07;12.25;;;4.60;;
69625;SDS011;56847;51.984;5.088;2023-02-28T08:12:44;9.43;;;4.63;;
69625;SDS011;56847;51.984;5.088;2023-02-28T08:15:11;8.32;;;5.35;;
69625;SDS011;56847;51.984;5.088;2023-02-28T08:17:38;8.10;;;4.80;;
69625;SDS011;56847;51.984;5.088;2023-02-28T08:20:05;17.15;;;6.03;;
69625;SDS011;56847;51.984;5.088;2023-02-28T08:22:32;15.32;;;4.82;;
69625;SDS011;56847;51.984;5.088;2023-02-28T08:24:59;10.00;;;4.93;;
69625;SDS011;56847;51.984;5.088;2023-02-28T08:27:26;7.78;;;5.13;;
69625;SDS011;56847;51.984;5.088;2023-02-28T08:29:53;5.23;;;4.50;;
69625;SDS011;56847;51.984;5.088;2023-02-28T08:32:20;8.60;;;4.43;;
69625;SDS011;56847;51.984;5.088;2023-02-28T08:34:56;8.38;;;5.13;;
69625;SDS011;56847;51.984;5.088;2023-02-28T08:37:23;6.30;;;4.88;;
69625;SDS011;56847;51.984;5.088;2023-02-28T08:39:50;6.57;;;4.30;;
69625;SDS011;56847;51.984;5.088;2023-02-28T08:42:21;5.13;;;3.97;;
69625;SDS011;56847;51.984;5.088;2023-02-28T08:44:56;8.50;;;3.92;;
69625;SDS011;56847;51.984;5.088;2023-02-28T08:47:23;7.40;;;4.97;;
69625;SDS011;56847;51.984;5.088;2023-02-28T08:49:50;6.93;;;4.85;;
69625;SDS011;56847;51.984;5.088;2023-02-28T08:52:17;8.55;;;5.00;;
69625;SDS011;56847;51.984;5.088;2023-02-28T08:54:50;8.37;;;5.17;;
69625;SDS011;56847;51.984;5.088;2023-02-28T08:57:17;7.03;;;4.45;;
69625;SDS011;56847;51.984;5.088;2023-02-28T08:59:44;5.43;;;4.80;;
69625;SDS011;56847;51.984;5.088;2023-02-28T09:02:12;5.45;;;4.38;;
69625;SDS011;56847;51.984;5.088;2023-02-28T09:04:40;7.13;;;4.90;;
69625;SDS011;56847;51.984;5.088;2023-02-28T09:07:07;8.70;;;4.30;;
69625;SDS011;56847;51.984;5.088;2023-02-28T09:09:34;8.55;;;4.15;;
69625;SDS011;56847;51.984;5.088;2023-02-28T09:12:01;7.65;;;4.68;;
69625;SDS011;56847;51.984;5.088;2023-02-28T09:14:29;5.60;;;4.32;;
69625;SDS011;56847;51.984;5.088;2023-02-28T09:16:56;7.20;;;4.13;;
69625;SDS011;56847;51.984;5.088;2023-02-28T09:19:23;5.53;;;3.73;;
69625;SDS011;56847;51.984;5.088;2023-02-28T09:21:52;5.93;;;4.28;;
69625;SDS011;56847;51.984;5.088;2023-02-28T09:24:19;8.13;;;4.57;;
69625;SDS011;56847;51.984;5.088;2023-02-28T09:26:46;4.30;;;3.33;;
69625;SDS011;56847;51.984;5.088;2023-02-28T09:29:30;6.70;;;3.83;;
69625;SDS011;56847;51.984;5.088;2023-02-28T09:31:57;5.97;;;3.50;;
69625;SDS011;56847;51.984;5.088;2023-02-28T09:34:25;4.30;;;2.97;;
69625;SDS011;56847;51.984;5.088;2023-02-28T09:36:53;4.30;;;3.47;;
69625;SDS011;56847;51.984;5.088;2023-02-28T09:39:21;7.75;;;3.72;;
69625;SDS011;56847;51.984;5.088;2023-02-28T09:41:51;4.35;;;3.95;;
69625;SDS011;56847;51.984;5.088;2023-02-28T09:44:22;3.83;;;3.30;;
69625;SDS011;56847;51.984;5.088;2023-02-28T09:46:51;4.93;;;3.05;;
69625;SDS011;56847;51.984;5.088;2023-02-28T09:49:23;6.13;;;3.75;;
69625;SDS011;56847;51.984;5.088;2023-02-28T09:52:03;7.05;;;3.08;;
69625;SDS011;56847;51.984;5.088;2023-02-28T09:54:35;5.50;;;3.20;;
69625;SDS011;56847;51.984;5.088;2023-02-28T09:57:13;4.47;;;2.93;;
69625;SDS011;56847;51.984;5.088;2023-02-28T10:03:00;3.92;;;3.40;;
69625;SDS011;56847;51.984;5.088;2023-02-28T10:05:52;4.55;;;3.25;;
69625;SDS011;56847;51.984;5.088;2023-02-28T10:11:32;6.83;;;3.57;;
69625;SDS011;56847;51.984;5.088;2023-02-28T10:14:02;6.45;;;3.03;;
69625;SDS011;56847;51.984;5.088;2023-02-28T10:16:35;3.22;;;2.92;;
69625;SDS011;56847;51.984;5.088;2023-02-28T10:19:30;4.45;;;3.10;;
69625;SDS011;56847;51.984;5.088;2023-02-28T10:24:42;8.03;;;2.93;;
69625;SDS011;56847;51.984;5.088;2023-02-28T10:29:49;5.57;;;3.30;;
69625;SDS011;56847;51.984;5.088;2023-02-28T10:32:20;8.40;;;3.63;;
69625;SDS011;56847;51.984;5.088;2023-02-28T10:37:38;4.53;;;3.00;;
69625;SDS011;56847;51.984;5.088;2023-02-28T10:43:02;5.55;;;2.65;;
69625;SDS011;56847;51.984;5.088;2023-02-28T10:45:40;3.92;;;2.70;;
69625;SDS011;56847;51.984;5.088;2023-02-28T10:49:00;7.63;;;3.03;;
69625;SDS011;56847;51.984;5.088;2023-02-28T10:51:39;6.40;;;3.77;;
69625;SDS011;56847;51.984;5.088;2023-02-28T10:54:14;3.55;;;2.80;;
69625;SDS011;56847;51.984;5.088;2023-02-28T10:56:44;5.60;;;2.72;;
69625;SDS011;56847;51.984;5.088;2023-02-28T10:59:26;3.30;;;2.65;;
69625;SDS011;56847;51.984;5.088;2023-02-28T11:01:56;3.10;;;2.78;;
69625;SDS011;56847;51.984;5.088;2023-02-28T11:07:02;3.17;;;2.58;;
69625;SDS011;56847;51.984;5.088;2023-02-28T11:09:34;6.85;;;3.20;;
69625;SDS011;56847;51.984;5.088;2023-02-28T11:12:10;4.38;;;3.08;;
69625;SDS011;56847;51.984;5.088;2023-02-28T11:14:56;3.38;;;3.08;;
69625;SDS011;56847;51.984;5.088;2023-02-28T11:17:27;2.87;;;2.67;;
69625;SDS011;56847;51.984;5.088;2023-02-28T11:19:58;4.63;;;2.80;;
69625;SDS011;56847;51.984;5.088;2023-02-28T11:22:35;3.22;;;2.92;;
69625;SDS011;56847;51.984;5.088;2023-02-28T11:25:09;4.53;;;2.97;;
69625;SDS011;56847;51.984;5.088;2023-02-28T11:27:46;8.48;;;3.38;;
69625;SDS011;56847;51.984;5.088;2023-02-28T11:30:49;6.00;;;3.00;;
69625;SDS011;56847;51.984;5.088;2023-02-28T11:33:26;3.30;;;3.00;;
69625;SDS011;56847;51.984;5.088;2023-02-28T11:35:54;5.03;;;3.20;;
69625;SDS011;56847;51.984;5.088;2023-02-28T11:38:25;3.45;;;3.15;;
69625;SDS011;56847;51.984;5.088;2023-02-28T11:46:32;2.78;;;2.53;;
69625;SDS011;56847;51.984;5.088;2023-02-28T11:49:35;5.38;;;2.70;;
69625;SDS011;56847;51.984;5.088;2023-02-28T11:52:20;3.00;;;2.65;;
69625;SDS011;56847;51.984;5.088;2023-02-28T12:06:18;4.55;;;2.90;;
69625;SDS011;56847;51.984;5.088;2023-02-28T12:09:17;3.60;;;3.30;;
69625;SDS011;56847;51.984;5.088;2023-02-28T12:12:13;3.37;;;2.63;;
69625;SDS011;56847;51.984;5.088;2023-02-28T12:14:58;3.40;;;2.90;;
69625;SDS011;56847;51.984;5.088;2023-02-28T12:17:32;4.13;;;3.30;;
69625;SDS011;56847;51.984;5.088;2023-02-28T12:23:17;8.55;;;3.30;;
69625;SDS011;56847;51.984;5.088;2023-02-28T12:25:50;4.80;;;2.63;;
69625;SDS011;56847;51.984;5.088;2023-02-28T12:28:26;8.30;;;3.22;;
69625;SDS011;56847;51.984;5.088;2023-02-28T12:31:09;5.13;;;3.63;;
69625;SDS011;56847;51.984;5.088;2023-02-28T12:33:46;3.17;;;2.88;;
69625;SDS011;56847;51.984;5.088;2023-02-28T12:36:18;4.47;;;2.92;;
69625;SDS011;56847;51.984;5.088;2023-02-28T12:38:53;5.87;;;2.67;;
69625;SDS011;56847;51.984;5.088;2023-02-28T12:41:34;3.75;;;3.20;;
69625;SDS011;56847;51.984;5.088;2023-02-28T12:44:18;4.00;;;3.10;;
69625;SDS011;56847;51.984;5.088;2023-02-28T12:46:51;4.65;;;3.28;;
69625;SDS011;56847;51.984;5.088;2023-02-28T12:49:25;3.90;;;3.25;;
69625;SDS011;56847;51.984;5.088;2023-02-28T12:51:59;4.33;;;3.03;;
69625;SDS011;56847;51.984;5.088;2023-02-28T12:54:36;3.17;;;2.88;;
69625;SDS011;56847;51.984;5.088;2023-02-28T13:00:35;4.10;;;2.90;;
69625;SDS011;56847;51.984;5.088;2023-02-28T13:11:32;3.67;;;3.03;;
69625;SDS011;56847;51.984;5.088;2023-02-28T13:14:24;3.40;;;3.10;;
69625;SDS011;56847;51.984;5.088;2023-02-28T13:19:45;3.80;;;3.40;;
69625;SDS011;56847;51.984;5.088;2023-02-28T13:24:52;4.43;;;4.03;;
69625;SDS011;56847;51.984;5.088;2023-02-28T13:27:21;5.97;;;3.22;;
69625;SDS011;56847;51.984;5.088;2023-02-28T13:29:54;5.28;;;3.58;;
69625;SDS011;56847;51.984;5.088;2023-02-28T13:39:54;3.72;;;2.75;;
69625;SDS011;56847;51.984;5.088;2023-02-28T13:47:44;4.88;;;3.42;;
69625;SDS011;56847;51.984;5.088;2023-02-28T13:53:04;3.58;;;2.97;;
69625;SDS011;56847;51.984;5.088;2023-02-28T13:55:44;6.35;;;3.38;;
69625;SDS011;56847;51.984;5.088;2023-02-28T14:06:33;3.92;;;3.22;;
69625;SDS011;56847;51.984;5.088;2023-02-28T14:11:57;15.87;;;8.43;;
69625;SDS011;56847;51.984;5.088;2023-02-28T14:15:03;4.30;;;3.25;;
69625;SDS011;56847;51.984;5.088;2023-02-28T14:17:52;4.85;;;3.05;;
69625;SDS011;56847;51.984;5.088;2023-02-28T14:20:22;16.95;;;3.33;;
69625;SDS011;56847;51.984;5.088;2023-02-28T14:23:06;3.58;;;3.22;;
69625;SDS011;56847;51.984;5.088;2023-02-28T14:28:18;3.33;;;3.00;;
69625;SDS011;56847;51.984;5.088;2023-02-28T14:31:07;4.43;;;3.13;;
69625;SDS011;56847;51.984;5.088;2023-02-28T14:33:46;4.35;;;3.65;;
69625;SDS011;56847;51.984;5.088;2023-02-28T14:36:27;4.07;;;3.15;;
69625;SDS011;56847;51.984;5.088;2023-02-28T14:39:12;10.20;;;3.00;;
69625;SDS011;56847;51.984;5.088;2023-02-28T14:41:41;3.38;;;2.90;;
69625;SDS011;56847;51.984;5.088;2023-02-28T14:44:17;3.70;;;2.97;;
69625;SDS011;56847;51.984;5.088;2023-02-28T14:46:53;4.63;;;3.20;;
69625;SDS011;56847;51.984;5.088;2023-02-28T14:54:44;7.32;;;3.20;;
69625;SDS011;56847;51.984;5.088;2023-02-28T14:57:21;4.65;;;3.47;;
69625;SDS011;56847;51.984;5.088;2023-02-28T15:00:13;6.88;;;3.42;;
69625;SDS011;56847;51.984;5.088;2023-02-28T15:02:49;3.75;;;3.05;;
69625;SDS011;56847;51.984;5.088;2023-02-28T15:05:19;3.60;;;2.97;;
69625;SDS011;56847;51.984;5.088;2023-02-28T15:08:00;4.13;;;2.80;;
69625;SDS011;56847;51.984;5.088;2023-02-28T15:10:42;6.57;;;3.38;;
69625;SDS011;56847;51.984;5.088;2023-02-28T15:13:12;4.05;;;3.40;;
69625;SDS011;56847;51.984;5.088;2023-02-28T15:15:43;4.05;;;3.10;;
69625;SDS011;56847;51.984;5.088;2023-02-28T15:18:30;4.57;;;3.30;;
69625;SDS011;56847;51.984;5.088;2023-02-28T15:21:11;3.83;;;3.35;;
69625;SDS011;56847;51.984;5.088;2023-02-28T15:23:45;3.58;;;2.83;;
69625;SDS011;56847;51.984;5.088;2023-02-28T15:26:16;4.32;;;2.42;;
69625;SDS011;56847;51.984;5.088;2023-02-28T15:28:59;5.63;;;3.15;;
69625;SDS011;56847;51.984;5.088;2023-02-28T15:34:12;4.28;;;2.97;;
69625;SDS011;56847;51.984;5.088;2023-02-28T15:43:02;7.78;;;3.20;;
69625;SDS011;56847;51.984;5.088;2023-02-28T15:48:28;3.65;;;3.20;;
69625;SDS011;56847;51.984;5.088;2023-02-28T15:50:57;5.35;;;3.15;;
69625;SDS011;56847;51.984;5.088;2023-02-28T15:53:32;3.72;;;2.90;;
69625;SDS011;56847;51.984;5.088;2023-02-28T15:56:20;4.00;;;3.05;;
69625;SDS011;56847;51.984;5.088;2023-02-28T15:58:53;4.57;;;2.20;;
69625;SDS011;56847;51.984;5.088;2023-02-28T16:01:28;4.47;;;2.75;;
69625;SDS011;56847;51.984;5.088;2023-02-28T16:04:03;3.70;;;3.30;;
69625;SDS011;56847;51.984;5.088;2023-02-28T16:06:35;5.05;;;3.42;;
69625;SDS011;56847;51.984;5.088;2023-02-28T16:09:09;4.90;;;3.13;;
69625;SDS011;56847;51.984;5.088;2023-02-28T16:11:47;5.10;;;3.50;;
69625;SDS011;56847;51.984;5.088;2023-02-28T16:14:17;4.63;;;3.42;;
69625;SDS011;56847;51.984;5.088;2023-02-28T16:16:56;4.43;;;3.20;;
69625;SDS011;56847;51.984;5.088;2023-02-28T16:19:30;3.47;;;2.75;;
69625;SDS011;56847;51.984;5.088;2023-02-28T16:21:59;4.68;;;3.22;;
69625;SDS011;56847;51.984;5.088;2023-02-28T16:24:27;6.03;;;2.90;;
69625;SDS011;56847;51.984;5.088;2023-02-28T16:26:54;6.90;;;4.03;;
69625;SDS011;56847;51.984;5.088;2023-02-28T16:29:24;8.45;;;5.47;;
69625;SDS011;56847;51.984;5.088;2023-02-28T16:31:57;5.38;;;4.38;;
69625;SDS011;56847;51.984;5.088;2023-02-28T16:34:24;5.40;;;3.92;;
69625;SDS011;56847;51.984;5.088;2023-02-28T16:36:51;4.33;;;3.20;;
69625;SDS011;56847;51.984;5.088;2023-02-28T16:39:18;7.15;;;4.00;;
69625;SDS011;56847;51.984;5.088;2023-02-28T16:41:47;5.30;;;3.50;;
69625;SDS011;56847;51.984;5.088;2023-02-28T16:44:21;5.30;;;4.22;;
69625;SDS011;56847;51.984;5.088;2023-02-28T16:47:01;4.78;;;3.30;;
69625;SDS011;56847;51.984;5.088;2023-02-28T16:49:29;4.87;;;3.33;;
69625;SDS011;56847;51.984;5.088;2023-02-28T16:51:57;6.10;;;4.00;;
69625;SDS011;56847;51.984;5.088;2023-02-28T16:54:23;5.30;;;3.35;;
69625;SDS011;56847;51.984;5.088;2023-02-28T16:56:51;5.40;;;3.50;;
69625;SDS011;56847;51.984;5.088;2023-02-28T16:59:22;7.22;;;3.63;;
69625;SDS011;56847;51.984;5.088;2023-02-28T17:01:51;3.40;;;2.93;;
69625;SDS011;56847;51.984;5.088;2023-02-28T17:04:18;4.43;;;3.85;;
69625;SDS011;56847;51.984;5.088;2023-02-28T17:06:45;6.10;;;3.72;;
69625;SDS011;56847;51.984;5.088;2023-02-28T17:09:22;5.68;;;4.07;;
69625;SDS011;56847;51.984;5.088;2023-02-28T17:12:05;4.70;;;4.03;;
69625;SDS011;56847;51.984;5.088;2023-02-28T17:14:32;6.13;;;4.20;;
69625;SDS011;56847;51.984;5.088;2023-02-28T17:16:59;4.55;;;3.55;;
69625;SDS011;56847;51.984;5.088;2023-02-28T17:19:27;5.32;;;3.90;;
69625;SDS011;56847;51.984;5.088;2023-02-28T17:21:54;5.15;;;3.30;;
69625;SDS011;56847;51.984;5.088;2023-02-28T17:24:21;7.15;;;3.88;;
69625;SDS011;56847;51.984;5.088;2023-02-28T17:26:56;5.07;;;3.57;;
69625;SDS011;56847;51.984;5.088;2023-02-28T17:29:23;8.00;;;4.07;;
69625;SDS011;56847;51.984;5.088;2023-02-28T17:31:51;14.98;;;4.25;;